Time;durP1;ratioP1;P1;durP2;ratioP2;P2;SDS_P1;SDS_P2;PMS_P1;PMS_P2;Temp;Humidity;BMP_temperature;BMP_pressure;BME280_temperature;BME280_humidity;BME280_pressure;Samples;Min_cycle;Max_cycle;Signal;HPM_P1;HPM_P2
2021/12/25 00:04:22;;;;;;;;;;;3.30;99.90;;;;;;10208108;28;84848;-58
2021/12/25 00:09:22;;;;;;;;;;;3.30;99.90;;;;;;10205814;28;84114;-52
2021/12/25 00:14:23;;;;;;;;;;;3.30;99.90;;;;;;10206184;28;84238;-57
2021/12/25 00:19:24;;;;;;;;;;;3.30;99.90;;;;;;10204972;28;84947;-53
2021/12/25 00:24:24;;;;;;;;;;;3.20;99.90;;;;;;10205431;28;84875;-56
2021/12/25 00:34:30;;;;;;;;;;;3.20;99.90;;;;;;10207588;28;84774;-52
2021/12/25 00:39:30;;;;;;;;;;;3.10;99.90;;;;;;10212171;28;84175;-53
2021/12/25 00:44:32;;;;;;;;;;;3.10;99.90;;;;;;10213583;28;84104;-58
2021/12/25 00:49:33;;;;;;;;;;;3.00;99.90;;;;;;10209581;28;87017;-56
2021/12/25 00:54:33;;;;;;;;;;;3.00;99.90;;;;;;10209764;28;84783;-53
2021/12/25 00:59:35;;;;;;;;;;;2.90;99.90;;;;;;10209971;28;85982;-57
2021/12/25 01:04:35;;;;;;;;;;;2.90;99.90;;;;;;10194203;28;85705;-51
2021/12/25 01:09:36;;;;;;;;;;;2.70;99.90;;;;;;10211768;28;85853;-54
2021/12/25 01:14:48;;;;;;;;;;;2.60;99.90;;;;;;10209629;28;86832;-57
2021/12/25 01:36:28;;;;;;;;;;;2.40;99.90;;;;;;10208086;28;87139;-55
2021/12/25 01:47:47;;;;;;;;;;;2.30;99.90;;;;;;10207574;28;85879;-58
2021/12/25 01:52:48;;;;;;;;;;;2.20;99.90;;;;;;10208966;28;86062;-53
2021/12/25 01:57:48;;;;;;;;;;;2.20;99.90;;;;;;10207981;28;85884;-55
2021/12/25 02:02:50;;;;;;;;;;;2.10;99.90;;;;;;10209041;28;86937;-55
2021/12/25 02:07:51;;;;;;;;;;;2.20;99.90;;;;;;10210129;28;84916;-54
2021/12/25 02:12:52;;;;;;;;;;;2.20;99.90;;;;;;10209121;28;86840;-54
2021/12/25 02:23:44;;;;;;;;;;;2.00;99.90;;;;;;10209287;28;85309;-56
2021/12/25 02:28:44;;;;;;;;;;;2.10;99.90;;;;;;10208186;28;84861;-58
2021/12/25 02:33:45;;;;;;;;;;;2.00;99.90;;;;;;10207618;28;84877;-54
2021/12/25 02:38:46;;;;;;;;;;;1.80;99.90;;;;;;10209031;28;84309;-55
2021/12/25 02:43:48;;;;;;;;;;;1.90;99.90;;;;;;10207517;28;86857;-55
2021/12/25 02:48:59;;;;;;;;;;;1.90;99.90;;;;;;10207653;28;85830;-53
2021/12/25 02:53:59;;;;;;;;;;;1.80;99.90;;;;;;10207117;28;85767;-53
2021/12/25 02:59:00;;;;;;;;;;;1.80;99.90;;;;;;10207458;28;86566;-51
2021/12/25 03:04:00;;;;;;;;;;;1.80;99.90;;;;;;10207005;28;86243;-57
2021/12/25 03:09:02;;;;;;;;;;;1.80;99.90;;;;;;10208237;28;84854;-55
2021/12/25 03:14:25;;;;;;;;;;;1.70;99.90;;;;;;10206683;28;86037;-54
2021/12/25 03:19:31;;;;;;;;;;;1.70;99.90;;;;;;10205546;28;86956;-57
2021/12/25 03:24:32;;;;;;;;;;;1.70;99.90;;;;;;10204326;28;87037;-55
2021/12/25 03:29:35;;;;;;;;;;;1.60;99.90;;;;;;10205660;28;84917;-54
2021/12/25 03:34:36;;;;;;;;;;;1.50;99.90;;;;;;10205401;28;86309;-57
2021/12/25 03:39:37;;;;;;;;;;;1.50;99.90;;;;;;10204585;28;86743;-57
2021/12/25 03:44:37;;;;;;;;;;;1.40;99.90;;;;;;10206095;28;84107;-56
2021/12/25 04:00:26;;;;;;;;;;;1.20;99.90;;;;;;10205513;28;87420;-53
2021/12/25 04:05:30;;;;;;;;;;;1.20;99.90;;;;;;10204344;28;86189;-52
2021/12/25 04:10:34;;;;;;;;;;;1.10;99.90;;;;;;10205770;28;84033;-53
2021/12/25 04:15:36;;;;;;;;;;;1.10;99.90;;;;;;10204795;28;86118;-53
2021/12/25 04:20:36;;;;;;;;;;;0.90;99.90;;;;;;10205451;28;85010;-55
2021/12/25 04:25:37;;;;;;;;;;;0.90;99.90;;;;;;10204243;28;86785;-56
2021/12/25 05:02:57;;;;;;;;;;;0.50;99.90;;;;;;10203881;28;85962;-53
2021/12/25 05:08:18;;;;;;;;;;;0.40;99.90;;;;;;10203655;28;84865;-56
2021/12/25 05:13:19;;;;;;;;;;;0.50;99.90;;;;;;10206024;28;84780;-55
2021/12/25 05:18:20;;;;;;;;;;;0.40;99.90;;;;;;10203703;28;86755;-53
2021/12/25 05:23:21;;;;;;;;;;;0.30;99.90;;;;;;10207665;28;85952;-53
2021/12/25 05:28:26;;;;;;;;;;;0.30;99.90;;;;;;10210161;28;85943;-56
2021/12/25 05:33:31;;;;;;;;;;;0.30;99.90;;;;;;10210727;28;85847;-54
2021/12/25 05:39:00;;;;;;;;;;;0.10;99.90;;;;;;10219519;23;85412;-48
2021/12/25 05:44:07;;;;;;;;;;;0.10;99.90;;;;;;10210171;28;86762;-48
2021/12/25 05:49:21;;;;;;;;;;;0.20;99.90;;;;;;10208412;28;86641;-48
2021/12/25 05:54:54;;;;;;;;;;;0.20;99.90;;;;;;10189528;28;84150;-50
2021/12/25 06:00:13;;;;;;;;;;;0.20;99.90;;;;;;10193654;28;85948;-50
2021/12/25 06:05:17;;;;;;;;;;;0.30;99.90;;;;;;10209291;28;84698;-53
2021/12/25 06:10:17;;;;;;;;;;;0.20;99.90;;;;;;10207794;28;86885;-48
2021/12/25 06:15:19;;;;;;;;;;;0.10;99.90;;;;;;10192040;28;86999;-50
2021/12/25 06:20:23;;;;;;;;;;;0.10;99.90;;;;;;10207160;28;86806;-49
2021/12/25 06:25:59;;;;;;;;;;;0.10;99.90;;;;;;10134530;28;84602;-53
2021/12/25 06:31:10;;;;;;;;;;;0.00;99.90;;;;;;10208130;28;85797;-48
2021/12/25 06:36:19;;;;;;;;;;;0.00;99.90;;;;;;10205942;28;87050;-47
2021/12/25 06:41:32;;;;;;;;;;;-0.10;99.90;;;;;;10208660;28;84762;-52
2021/12/25 06:46:33;;;;;;;;;;;-0.10;99.90;;;;;;10206879;28;85895;-48
2021/12/25 06:51:35;;;;;;;;;;;-0.20;99.90;;;;;;10206316;28;86745;-49
2021/12/25 06:56:51;;;;;;;;;;;-0.20;99.90;;;;;;10211777;28;86918;-50
2021/12/25 07:01:58;;;;;;;;;;;-0.20;99.90;;;;;;10211000;28;86115;-48
2021/12/25 07:07:18;;;;;;;;;;;-0.40;99.90;;;;;;10208074;28;84498;-49
2021/12/25 07:12:46;;;;;;;;;;;-0.50;99.90;;;;;;10206911;28;86194;-48
2021/12/25 07:18:06;;;;;;;;;;;-0.70;99.90;;;;;;10192076;28;84217;-49
2021/12/25 07:23:24;;;;;;;;;;;-0.80;99.90;;;;;;10205800;28;86835;-49
2021/12/25 07:28:51;;;;;;;;;;;-0.80;99.90;;;;;;10205678;28;84250;-50
2021/12/25 07:33:52;;;;;;;;;;;-1.00;99.90;;;;;;10190053;28;84470;-48
2021/12/25 07:38:54;;;;;;;;;;;-1.10;99.90;;;;;;10206124;28;84924;-53
2021/12/25 07:43:55;;;;;;;;;;;-1.20;99.90;;;;;;10204514;28;84989;-49
2021/12/25 07:48:58;;;;;;;;;;;-1.20;99.90;;;;;;10205784;28;84627;-48
2021/12/25 07:53:59;;;;;;;;;;;-1.30;99.90;;;;;;10204872;28;84854;-48
2021/12/25 07:58:59;;;;;;;;;;;-1.20;99.90;;;;;;10205652;28;84138;-48
2021/12/25 08:04:00;;;;;;;;;;;-1.20;99.90;;;;;;10206359;28;84844;-48
2021/12/25 08:09:03;;;;;;;;;;;-1.20;99.90;;;;;;10203478;28;86128;-46
2021/12/25 08:14:03;;;;;;;;;;;-1.20;99.90;;;;;;10205126;28;84213;-51
2021/12/25 08:19:04;;;;;;;;;;;-1.20;99.90;;;;;;10204964;28;84958;-47
2021/12/25 08:24:23;;;;;;;;;;;-1.20;99.90;;;;;;10205200;28;84494;-52
2021/12/25 08:29:44;;;;;;;;;;;-1.10;99.90;;;;;;10193151;28;84636;-48
2021/12/25 08:35:03;;;;;;;;;;;-1.00;99.90;;;;;;10203368;28;84136;-47
2021/12/25 08:40:09;;;;;;;;;;;-1.10;99.90;;;;;;10187705;28;86526;-45
2021/12/25 08:45:20;;;;;;;;;;;-1.00;99.90;;;;;;10204600;28;86111;-47
2021/12/25 08:50:20;;;;;;;;;;;-0.90;99.90;;;;;;10204653;28;86295;-50
2021/12/25 08:55:21;;;;;;;;;;;-0.80;99.90;;;;;;10205931;28;84966;-50
2021/12/25 09:00:22;;;;;;;;;;;-0.70;99.90;;;;;;10210493;28;84101;-49
2021/12/25 09:05:22;;;;;;;;;;;-0.50;99.90;;;;;;10209557;28;84161;-54
2021/12/25 09:10:23;;;;;;;;;;;-0.50;99.90;;;;;;10210606;28;84961;-49
2021/12/25 09:15:24;;;;;;;;;;;-0.40;99.90;;;;;;10209970;28;84139;-53
2021/12/25 09:20:25;;;;;;;;;;;0.00;99.90;;;;;;10208764;28;87105;-51
2021/12/25 09:25:26;;;;;;;;;;;-0.10;99.90;;;;;;10208362;28;86969;-48
2021/12/25 09:30:26;;;;;;;;;;;0.00;99.90;;;;;;10209589;28;84915;-44
2021/12/25 09:35:27;;;;;;;;;;;0.30;99.90;;;;;;10209616;28;84064;-49
2021/12/25 09:40:27;;;;;;;;;;;0.60;99.90;;;;;;10209087;28;84148;-48
2021/12/25 09:45:28;;;;;;;;;;;1.40;99.90;;;;;;10209357;28;84121;-51
2021/12/25 09:50:28;;;;;;;;;;;1.80;99.90;;;;;;10207813;28;84090;-52
2021/12/25 09:55:29;;;;;;;;;;;2.70;99.90;;;;;;10208593;28;84286;-47
2021/12/25 10:00:30;;;;;;;;;;;3.10;99.90;;;;;;10207657;28;84901;-51
2021/12/25 10:05:36;;;;;;;;;;;3.40;99.90;;;;;;10207138;28;85078;-48
2021/12/25 10:10:41;;;;;;;;;;;3.40;99.90;;;;;;10207581;28;84803;-47
2021/12/25 10:15:42;;;;;;;;;;;2.70;99.90;;;;;;10208944;28;84916;-48
2021/12/25 10:20:43;;;;;;;;;;;1.70;99.90;;;;;;10192679;28;85546;-48
2021/12/25 10:25:49;;;;;;;;;;;1.20;99.90;;;;;;10210322;28;84176;-50
2021/12/25 10:30:59;;;;;;;;;;;0.70;99.90;;;;;;10192935;28;84880;-51
2021/12/25 10:36:19;;;;;;;;;;;0.50;99.90;;;;;;10210094;28;84940;-47
2021/12/25 10:41:22;;;;;;;;;;;0.60;99.90;;;;;;10208509;28;84624;-48
2021/12/25 10:46:22;;;;;;;;;;;0.40;99.90;;;;;;10208415;28;84755;-49
2021/12/25 10:51:27;;;;;;;;;;;0.20;99.90;;;;;;10208337;28;84758;-48
2021/12/25 10:56:36;;;;;;;;;;;0.30;99.90;;;;;;10206539;28;85741;-47
2021/12/25 11:01:39;;;;;;;;;;;0.20;99.90;;;;;;10208000;28;84982;-47
2021/12/25 11:06:42;;;;;;;;;;;0.10;99.90;;;;;;10206765;28;84057;-50
2021/12/25 11:11:43;;;;;;;;;;;0.10;99.90;;;;;;10206371;28;84149;-47
2021/12/25 11:16:50;;;;;;;;;;;0.20;99.90;;;;;;10206601;28;84358;-48
2021/12/25 11:21:52;;;;;;;;;;;0.10;99.90;;;;;;10207194;28;84303;-47
2021/12/25 11:26:57;;;;;;;;;;;0.10;99.90;;;;;;10206146;28;87176;-52
2021/12/25 11:31:58;;;;;;;;;;;0.20;99.90;;;;;;10208603;28;84881;-46
2021/12/25 11:37:00;;;;;;;;;;;0.10;99.90;;;;;;10229408;23;85010;-55
2021/12/25 11:42:06;;;;;;;;;;;0.20;99.90;;;;;;10207437;28;84789;-56
2021/12/25 11:47:07;;;;;;;;;;;0.20;99.90;;;;;;10205136;28;86637;-56
2021/12/25 11:52:14;;;;;;;;;;;0.20;99.90;;;;;;10207408;28;84296;-54
2021/12/25 12:02:36;;;;;;;;;;;0.30;99.90;;;;;;10206682;28;85071;-51
2021/12/25 12:07:55;;;;;;;;;;;0.30;99.90;;;;;;10206439;28;84904;-53
2021/12/25 12:13:27;;;;;;;;;;;0.30;99.90;;;;;;10206685;28;84557;-57
2021/12/25 12:18:53;;;;;;;;;;;0.30;99.90;;;;;;10205601;28;84760;-56
2021/12/25 12:24:10;;;;;;;;;;;0.30;99.90;;;;;;10206597;28;84846;-56
2021/12/25 12:29:12;;;;;;;;;;;0.20;99.90;;;;;;10205480;28;84868;-54
2021/12/25 12:34:31;;;;;;;;;;;0.30;99.90;;;;;;10205193;28;85188;-57
2021/12/25 12:39:32;;;;;;;;;;;0.30;99.90;;;;;;10204242;28;84734;-54
2021/12/25 12:44:32;;;;;;;;;;;0.50;99.90;;;;;;10205554;28;84179;-52
2021/12/25 12:49:53;;;;;;;;;;;0.40;99.90;;;;;;10204908;28;84062;-54
2021/12/25 12:54:55;;;;;;;;;;;0.40;99.90;;;;;;10205078;28;84902;-54
2021/12/25 12:59:59;;;;;;;;;;;0.40;99.90;;;;;;10205450;28;84772;-52
2021/12/25 13:05:01;;;;;;;;;;;0.40;99.90;;;;;;10204685;28;84793;-57
2021/12/25 13:10:17;;;;;;;;;;;0.50;99.90;;;;;;10203962;28;84034;-54
2021/12/25 13:15:31;;;;;;;;;;;0.50;99.90;;;;;;10204645;28;85212;-53
2021/12/25 13:20:34;;;;;;;;;;;0.50;99.90;;;;;;10202311;28;84027;-56
2021/12/25 13:25:34;;;;;;;;;;;0.50;99.90;;;;;;10203796;28;84818;-57
2021/12/25 13:30:36;;;;;;;;;;;0.50;99.90;;;;;;10205584;28;84033;-55
2021/12/25 13:35:37;;;;;;;;;;;0.60;99.90;;;;;;10204966;28;84239;-54
2021/12/25 13:40:38;;;;;;;;;;;0.50;99.90;;;;;;10204370;28;85007;-54
2021/12/25 13:45:38;;;;;;;;;;;0.30;99.90;;;;;;10209635;28;85362;-52
2021/12/25 13:50:39;;;;;;;;;;;0.30;99.90;;;;;;10211116;28;84113;-54
2021/12/25 13:55:40;;;;;;;;;;;0.30;99.90;;;;;;10210296;28;85211;-53
2021/12/25 14:00:50;;;;;;;;;;;0.30;99.90;;;;;;10208971;28;86370;-55
2021/12/25 14:05:52;;;;;;;;;;;0.20;99.90;;;;;;10209893;28;84960;-56
2021/12/25 14:10:59;;;;;;;;;;;0.20;99.90;;;;;;10209922;28;84010;-53
2021/12/25 14:15:59;;;;;;;;;;;0.10;99.90;;;;;;10209686;28;84854;-58
2021/12/25 14:21:15;;;;;;;;;;;0.00;99.90;;;;;;10207275;28;86000;-57
2021/12/25 14:26:18;;;;;;;;;;;0.00;99.90;;;;;;10209453;28;84018;-56
2021/12/25 14:31:19;;;;;;;;;;;0.00;99.90;;;;;;10209603;28;84108;-54
2021/12/25 14:36:20;;;;;;;;;;;-0.10;99.90;;;;;;10209380;28;84304;-52
2021/12/25 14:41:25;;;;;;;;;;;-0.20;99.90;;;;;;10208786;28;84797;-55
2021/12/25 14:46:25;;;;;;;;;;;-0.20;99.90;;;;;;10208090;28;84019;-54
2021/12/25 14:51:33;;;;;;;;;;;-0.30;99.90;;;;;;10208537;28;84667;-51
2021/12/25 14:56:35;;;;;;;;;;;-0.30;99.90;;;;;;10208047;28;85082;-56
2021/12/25 15:01:37;;;;;;;;;;;-0.30;99.90;;;;;;10208100;28;84866;-53
2021/12/25 15:06:41;;;;;;;;;;;-0.40;99.90;;;;;;10207814;28;84935;-57
2021/12/25 15:11:44;;;;;;;;;;;-0.50;99.90;;;;;;10208371;28;84850;-53
2021/12/25 15:16:49;;;;;;;;;;;-0.50;99.90;;;;;;10207495;28;84092;-53
2021/12/25 15:21:50;;;;;;;;;;;-0.60;99.90;;;;;;10206861;28;84769;-51
2021/12/25 15:26:53;;;;;;;;;;;-0.60;99.90;;;;;;10207289;28;84024;-55
2021/12/25 15:31:57;;;;;;;;;;;-0.70;99.90;;;;;;10207540;28;84027;-52
2021/12/25 15:36:59;;;;;;;;;;;-0.80;99.90;;;;;;10206270;28;84975;-56
2021/12/25 15:42:04;;;;;;;;;;;-0.90;99.90;;;;;;10207222;28;84375;-54
2021/12/25 15:47:05;;;;;;;;;;;-0.90;99.90;;;;;;10205928;28;84964;-55
2021/12/25 15:52:05;;;;;;;;;;;-0.90;99.90;;;;;;10206475;28;84627;-56
2021/12/25 15:57:07;;;;;;;;;;;-1.00;99.90;;;;;;10204513;28;85073;-55
2021/12/25 16:02:16;;;;;;;;;;;-1.10;99.90;;;;;;10206214;28;84700;-56
2021/12/25 16:07:16;;;;;;;;;;;-1.20;99.90;;;;;;10204752;28;85037;-56
2021/12/25 16:12:17;;;;;;;;;;;-1.20;99.90;;;;;;10206219;28;84422;-53
2021/12/25 16:17:18;;;;;;;;;;;-1.30;99.90;;;;;;10204818;28;84143;-57
2021/12/25 16:22:18;;;;;;;;;;;-1.30;99.90;;;;;;10206042;28;84886;-55
2021/12/25 16:27:19;;;;;;;;;;;-1.40;99.90;;;;;;10204071;28;86505;-52
2021/12/25 16:32:20;;;;;;;;;;;-1.50;99.90;;;;;;10205722;28;85101;-54
2021/12/25 16:37:20;;;;;;;;;;;-1.50;99.90;;;;;;10204745;28;84400;-54
2021/12/25 16:42:21;;;;;;;;;;;-1.50;99.90;;;;;;10204933;28;84737;-58
2021/12/25 16:47:21;;;;;;;;;;;-1.60;99.90;;;;;;10204238;28;84147;-56
2021/12/25 16:52:22;;;;;;;;;;;-1.70;99.90;;;;;;10203229;28;86768;-53
2021/12/25 16:57:23;;;;;;;;;;;-1.80;99.90;;;;;;10204104;28;84125;-57
2021/12/25 17:02:25;;;;;;;;;;;-1.80;99.90;;;;;;10203776;28;84834;-56
2021/12/25 17:07:26;;;;;;;;;;;-1.90;99.90;;;;;;10203737;28;84875;-52
2021/12/25 17:12:28;;;;;;;;;;;-2.00;99.90;;;;;;10204001;28;84166;-56
2021/12/25 17:17:29;;;;;;;;;;;-2.00;99.90;;;;;;10206255;28;85039;-59
2021/12/25 17:22:29;;;;;;;;;;;-2.00;99.90;;;;;;10211175;28;84893;-55
2021/12/25 17:27:31;;;;;;;;;;;-2.10;99.90;;;;;;10208788;28;84209;-56
2021/12/25 17:32:32;;;;;;;;;;;-2.10;99.90;;;;;;10210311;28;85063;-56
2021/12/25 17:37:32;;;;;;;;;;;-2.20;99.90;;;;;;10221134;23;84858;-47
2021/12/25 17:42:33;;;;;;;;;;;-2.20;99.90;;;;;;10171911;28;84279;-48
2021/12/25 17:47:34;;;;;;;;;;;-2.30;99.90;;;;;;10171318;28;84848;-48
2021/12/25 17:52:34;;;;;;;;;;;-2.30;99.90;;;;;;10169759;28;85757;-47
2021/12/25 17:57:35;;;;;;;;;;;-2.30;99.90;;;;;;10170402;28;84971;-46
2021/12/25 18:02:36;;;;;;;;;;;-2.40;99.90;;;;;;10171500;28;84839;-49
2021/12/25 18:07:36;;;;;;;;;;;-2.40;99.90;;;;;;10170042;28;84789;-48
2021/12/25 18:12:37;;;;;;;;;;;-2.40;99.90;;;;;;10169438;28;85065;-48
2021/12/25 18:17:39;;;;;;;;;;;-2.40;99.90;;;;;;10171064;28;84763;-46
2021/12/25 18:22:40;;;;;;;;;;;-2.50;99.90;;;;;;10172164;28;84123;-47
2021/12/25 18:27:40;;;;;;;;;;;-2.40;99.90;;;;;;10170298;28;84861;-49
2021/12/25 18:32:41;;;;;;;;;;;-2.50;99.90;;;;;;10171693;28;84034;-46
2021/12/25 18:37:42;;;;;;;;;;;-2.50;99.90;;;;;;10168594;28;84901;-47
2021/12/25 18:42:42;;;;;;;;;;;-2.60;99.90;;;;;;10170509;28;84173;-47
2021/12/25 18:47:43;;;;;;;;;;;-2.60;99.90;;;;;;10170154;28;85133;-45
2021/12/25 18:52:44;;;;;;;;;;;-2.60;99.90;;;;;;10170185;28;85034;-47
2021/12/25 18:57:44;;;;;;;;;;;-2.70;99.90;;;;;;10168086;28;84332;-47
2021/12/25 19:02:46;;;;;;;;;;;-2.70;99.90;;;;;;10168923;28;85642;-46
2021/12/25 19:07:46;;;;;;;;;;;-2.70;99.90;;;;;;10169716;28;84169;-49
2021/12/25 19:12:49;;;;;;;;;;;-2.80;99.90;;;;;;10169609;28;84111;-47
2021/12/25 19:17:50;;;;;;;;;;;-2.70;99.90;;;;;;10168799;28;84061;-45
2021/12/25 19:22:51;;;;;;;;;;;-2.70;99.90;;;;;;10170470;28;84097;-46
2021/12/25 19:27:52;;;;;;;;;;;-2.80;99.90;;;;;;10168362;28;83992;-49
2021/12/25 19:32:54;;;;;;;;;;;-2.80;99.90;;;;;;10167799;28;86034;-49
2021/12/25 19:37:54;;;;;;;;;;;-2.90;99.90;;;;;;10166530;28;84145;-48
2021/12/25 19:42:55;;;;;;;;;;;-2.90;99.90;;;;;;10168436;28;84582;-46
2021/12/25 19:47:56;;;;;;;;;;;-3.00;99.90;;;;;;10167278;28;84215;-47
2021/12/25 19:52:57;;;;;;;;;;;-3.00;99.90;;;;;;10168650;28;84290;-47
2021/12/25 19:58:00;;;;;;;;;;;-2.90;99.90;;;;;;10166838;28;84739;-49
2021/12/25 20:03:01;;;;;;;;;;;-2.90;99.90;;;;;;10168226;28;85754;-49
2021/12/25 20:08:02;;;;;;;;;;;-3.00;99.90;;;;;;10168551;28;84738;-48
2021/12/25 20:13:03;;;;;;;;;;;-3.00;99.90;;;;;;10167934;28;84788;-49
2021/12/25 20:18:04;;;;;;;;;;;-3.00;99.90;;;;;;10169122;28;84943;-48
2021/12/25 20:23:04;;;;;;;;;;;-3.00;99.90;;;;;;10168547;28;84108;-49
2021/12/25 20:28:05;;;;;;;;;;;-3.00;99.90;;;;;;10166377;28;84310;-46
2021/12/25 20:33:05;;;;;;;;;;;-3.00;99.90;;;;;;10166888;28;84191;-48
2021/12/25 20:38:06;;;;;;;;;;;-3.00;99.90;;;;;;10166101;28;84294;-47
2021/12/25 20:43:10;;;;;;;;;;;-3.00;99.90;;;;;;10165025;28;86022;-49
2021/12/25 20:48:21;;;;;;;;;;;-3.00;99.90;;;;;;10165811;28;84852;-51
2021/12/25 20:53:23;;;;;;;;;;;-3.00;99.90;;;;;;10170371;28;84023;-52
2021/12/25 20:58:24;;;;;;;;;;;-3.10;99.90;;;;;;10172793;28;84253;-50
2021/12/25 21:03:25;;;;;;;;;;;-3.10;99.90;;;;;;10172963;28;84870;-48
2021/12/25 21:08:26;;;;;;;;;;;-3.20;99.90;;;;;;10172369;28;84949;-52
2021/12/25 21:13:26;;;;;;;;;;;-3.10;99.90;;;;;;10173100;28;84805;-49
2021/12/25 21:18:27;;;;;;;;;;;-3.20;99.90;;;;;;10170424;28;85356;-51
2021/12/25 21:23:28;;;;;;;;;;;-3.10;99.90;;;;;;10173005;28;84046;-47
2021/12/25 21:28:29;;;;;;;;;;;-3.10;99.90;;;;;;10171320;28;84132;-52
2021/12/25 21:33:30;;;;;;;;;;;-3.20;99.90;;;;;;10172554;28;85316;-51
2021/12/25 21:38:31;;;;;;;;;;;-3.20;99.90;;;;;;10171486;28;84873;-50
2021/12/25 21:43:31;;;;;;;;;;;-3.20;99.90;;;;;;10171230;28;84863;-50
2021/12/25 21:48:32;;;;;;;;;;;-3.10;99.90;;;;;;10170632;28;84022;-52
2021/12/25 21:53:32;;;;;;;;;;;-3.10;99.90;;;;;;10171245;28;84862;-47
2021/12/25 21:58:33;;;;;;;;;;;-3.10;99.90;;;;;;10170667;28;84845;-51
2021/12/25 22:03:34;;;;;;;;;;;-3.10;99.90;;;;;;10168948;28;84661;-52
2021/12/25 22:08:37;;;;;;;;;;;-3.20;99.90;;;;;;10170812;28;84904;-48
2021/12/25 22:13:38;;;;;;;;;;;-3.20;99.90;;;;;;10169203;28;84143;-52
2021/12/25 22:18:38;;;;;;;;;;;-3.10;99.90;;;;;;10170495;28;85303;-48
2021/12/25 22:23:40;;;;;;;;;;;-3.10;99.90;;;;;;10152951;28;87149;-50
2021/12/25 22:28:41;;;;;;;;;;;-3.10;99.90;;;;;;10169488;28;85290;-49
2021/12/25 22:33:42;;;;;;;;;;;-3.10;99.90;;;;;;10171085;28;84188;-48
2021/12/25 22:38:42;;;;;;;;;;;-3.10;99.90;;;;;;10168638;28;84548;-50
2021/12/25 22:43:43;;;;;;;;;;;-3.10;99.90;;;;;;10168683;28;85796;-49
2021/12/25 22:48:44;;;;;;;;;;;-3.20;99.90;;;;;;10169362;28;84866;-49
2021/12/25 22:53:45;;;;;;;;;;;-3.10;99.90;;;;;;10169287;28;84698;-49
2021/12/25 22:58:46;;;;;;;;;;;-3.20;99.90;;;;;;10168838;28;85262;-47
2021/12/25 23:03:50;;;;;;;;;;;-3.10;99.90;;;;;;10167795;28;86224;-51
2021/12/25 23:08:56;;;;;;;;;;;-3.20;99.90;;;;;;10169109;28;84240;-49
2021/12/25 23:13:57;;;;;;;;;;;-3.20;99.90;;;;;;10168767;28;84079;-51
2021/12/25 23:18:58;;;;;;;;;;;-3.10;99.90;;;;;;10169201;28;84844;-47
2021/12/25 23:23:59;;;;;;;;;;;-3.20;99.90;;;;;;10169228;28;84947;-48
2021/12/25 23:29:01;;;;;;;;;;;-3.20;99.90;;;;;;10167710;28;86074;-48
2021/12/25 23:34:02;;;;;;;;;;;-3.20;99.90;;;;;;10168568;28;84039;-47
2021/12/25 23:39:06;;;;;;;;;;;-3.30;99.90;;;;;;10194063;23;85041;-54
2021/12/25 23:44:15;;;;;;;;;;;-3.20;99.90;;;;;;10205798;28;84099;-53
2021/12/25 23:49:15;;;;;;;;;;;-3.30;99.90;;;;;;10205457;28;85236;-54
2021/12/25 23:54:16;;;;;;;;;;;-3.30;99.90;;;;;;10205502;28;84937;-51
2021/12/25 23:59:17;;;;;;;;;;;-3.30;99.90;;;;;;10203506;28;86818;-50
